sensor_id;sensor_type;location;lat;lon;timestamp;pressure;altitude;pressure_sealevel;temperature;humidity
18533;BME280;9396;51.510;11.934;2023-07-16T00:00:00;99959.84;;;22.80;94.45
18533;BME280;9396;51.510;11.934;2023-07-16T00:02:29;99977.22;;;22.79;93.86
18533;BME280;9396;51.510;11.934;2023-07-16T00:04:56;99971.88;;;22.84;93.77
18533;BME280;9396;51.510;11.934;2023-07-16T00:07:22;99973.19;;;22.82;93.65
18533;BME280;9396;51.510;11.934;2023-07-16T00:09:50;99981.09;;;22.83;93.06
18533;BME280;9396;51.510;11.934;2023-07-16T00:12:17;99981.75;;;22.90;92.29
18533;BME280;9396;51.510;11.934;2023-07-16T00:14:44;99976.47;;;22.84;94.15
18533;BME280;9396;51.510;11.934;2023-07-16T00:17:10;99965.47;;;22.90;94.37
18533;BME280;9396;51.510;11.934;2023-07-16T00:19:37;99951.25;;;22.83;96.51
18533;BME280;9396;51.510;11.934;2023-07-16T00:22:04;99964.41;;;22.75;98.04
18533;BME280;9396;51.510;11.934;2023-07-16T00:24:30;99961.19;;;22.78;98.86
18533;BME280;9396;51.510;11.934;2023-07-16T00:26:58;99942.91;;;22.73;99.06
18533;BME280;9396;51.510;11.934;2023-07-16T00:32:00;99930.44;;;22.72;100.00
18533;BME280;9396;51.510;11.934;2023-07-16T00:34:27;99940.44;;;22.55;100.00
18533;BME280;9396;51.510;11.934;2023-07-16T00:36:54;99939.19;;;22.63;100.00
18533;BME280;9396;51.510;11.934;2023-07-16T00:39:26;99951.47;;;22.65;100.00
18533;BME280;9396;51.510;11.934;2023-07-16T00:41:53;99949.16;;;22.46;100.00
18533;BME280;9396;51.510;11.934;2023-07-16T00:44:21;99941.84;;;22.46;100.00
18533;BME280;9396;51.510;11.934;2023-07-16T00:46:48;99943.47;;;22.47;100.00
18533;BME280;9396;51.510;11.934;2023-07-16T00:53:10;99927.50;;;22.34;100.00
18533;BME280;9396;51.510;11.934;2023-07-16T00:55:39;99928.16;;;22.41;100.00
18533;BME280;9396;51.510;11.934;2023-07-16T00:58:06;99920.41;;;22.45;100.00
18533;BME280;9396;51.510;11.934;2023-07-16T01:00:36;99923.47;;;22.48;100.00
18533;BME280;9396;51.510;11.934;2023-07-16T01:03:05;99928.09;;;22.36;100.00
18533;BME280;9396;51.510;11.934;2023-07-16T01:12:16;99928.56;;;22.33;100.00
18533;BME280;9396;51.510;11.934;2023-07-16T01:14:43;99912.06;;;22.34;100.00
18533;BME280;9396;51.510;11.934;2023-07-16T01:17:11;99914.06;;;22.39;100.00
18533;BME280;9396;51.510;11.934;2023-07-16T01:19:38;99914.63;;;22.41;100.00
18533;BME280;9396;51.510;11.934;2023-07-16T01:22:22;99925.38;;;22.36;100.00
18533;BME280;9396;51.510;11.934;2023-07-16T01:25:01;99913.22;;;22.39;100.00
18533;BME280;9396;51.510;11.934;2023-07-16T01:27:50;99915.44;;;22.42;100.00
18533;BME280;9396;51.510;11.934;2023-07-16T01:34:04;99942.81;;;22.40;100.00
18533;BME280;9396;51.510;11.934;2023-07-16T01:36:32;99944.59;;;22.34;100.00
18533;BME280;9396;51.510;11.934;2023-07-16T01:39:00;99937.44;;;22.28;100.00
18533;BME280;9396;51.510;11.934;2023-07-16T01:48:16;99899.16;;;22.25;100.00
18533;BME280;9396;51.510;11.934;2023-07-16T01:50:49;99919.03;;;22.30;100.00
18533;BME280;9396;51.510;11.934;2023-07-16T01:53:15;99942.38;;;22.31;100.00
18533;BME280;9396;51.510;11.934;2023-07-16T01:55:42;99932.25;;;22.27;100.00
18533;BME280;9396;51.510;11.934;2023-07-16T01:58:09;99929.94;;;22.07;100.00
18533;BME280;9396;51.510;11.934;2023-07-16T02:00:36;99968.94;;;22.06;100.00
18533;BME280;9396;51.510;11.934;2023-07-16T02:06:25;99923.31;;;22.15;100.00
18533;BME280;9396;51.510;11.934;2023-07-16T02:08:52;99939.28;;;22.00;100.00
18533;BME280;9396;51.510;11.934;2023-07-16T02:11:19;99930.94;;;21.90;100.00
18533;BME280;9396;51.510;11.934;2023-07-16T02:21:06;99949.75;;;22.08;100.00
18533;BME280;9396;51.510;11.934;2023-07-16T02:23:34;99924.19;;;22.04;100.00
18533;BME280;9396;51.510;11.934;2023-07-16T02:26:01;99911.50;;;21.93;100.00
18533;BME280;9396;51.510;11.934;2023-07-16T02:28:27;99910.09;;;21.90;100.00
18533;BME280;9396;51.510;11.934;2023-07-16T02:30:54;99915.03;;;21.93;100.00
18533;BME280;9396;51.510;11.934;2023-07-16T02:33:21;99921.81;;;22.07;100.00
18533;BME280;9396;51.510;11.934;2023-07-16T02:35:48;99906.13;;;22.09;100.00
18533;BME280;9396;51.510;11.934;2023-07-16T02:38:14;99909.69;;;22.10;100.00
18533;BME280;9396;51.510;11.934;2023-07-16T02:40:44;99912.00;;;22.18;100.00
18533;BME280;9396;51.510;11.934;2023-07-16T02:43:10;99908.56;;;22.22;100.00
18533;BME280;9396;51.510;11.934;2023-07-16T02:45:37;99915.97;;;22.27;100.00
18533;BME280;9396;51.510;11.934;2023-07-16T02:48:05;99913.50;;;22.25;100.00
18533;BME280;9396;51.510;11.934;2023-07-16T02:50:33;99927.41;;;22.29;100.00
18533;BME280;9396;51.510;11.934;2023-07-16T02:53:00;99939.22;;;22.23;100.00
18533;BME280;9396;51.510;11.934;2023-07-16T02:55:27;99926.34;;;22.02;100.00
18533;BME280;9396;51.510;11.934;2023-07-16T02:57:55;99919.69;;;22.09;100.00
18533;BME280;9396;51.510;11.934;2023-07-16T03:00:22;99941.47;;;22.14;100.00
18533;BME280;9396;51.510;11.934;2023-07-16T03:02:49;99938.56;;;22.04;100.00
18533;BME280;9396;51.510;11.934;2023-07-16T03:05:16;99936.78;;;22.10;100.00
18533;BME280;9396;51.510;11.934;2023-07-16T03:07:42;99946.09;;;22.14;100.00
18533;BME280;9396;51.510;11.934;2023-07-16T03:10:09;99895.94;;;22.00;100.00
18533;BME280;9396;51.510;11.934;2023-07-16T03:12:36;99889.63;;;21.71;100.00
18533;BME280;9396;51.510;11.934;2023-07-16T03:15:05;99922.22;;;21.88;100.00
18533;BME280;9396;51.510;11.934;2023-07-16T03:17:31;99945.41;;;21.95;100.00
18533;BME280;9396;51.510;11.934;2023-07-16T03:19:58;99934.91;;;21.99;100.00
18533;BME280;9396;51.510;11.934;2023-07-16T03:22:25;99924.31;;;21.97;100.00
18533;BME280;9396;51.510;11.934;2023-07-16T03:24:51;99926.22;;;21.74;100.00
18533;BME280;9396;51.510;11.934;2023-07-16T03:27:18;99951.44;;;21.86;100.00
18533;BME280;9396;51.510;11.934;2023-07-16T03:29:45;99951.06;;;21.94;100.00
18533;BME280;9396;51.510;11.934;2023-07-16T03:32:13;99959.06;;;22.00;100.00
18533;BME280;9396;51.510;11.934;2023-07-16T03:34:39;99978.84;;;22.01;100.00
18533;BME280;9396;51.510;11.934;2023-07-16T03:37:06;99998.66;;;22.01;100.00
18533;BME280;9396;51.510;11.934;2023-07-16T03:39:33;100007.38;;;22.03;100.00
18533;BME280;9396;51.510;11.934;2023-07-16T03:41:59;100008.16;;;22.04;100.00
18533;BME280;9396;51.510;11.934;2023-07-16T03:44:26;100018.78;;;22.05;100.00
18533;BME280;9396;51.510;11.934;2023-07-16T03:53:38;100041.16;;;22.01;100.00
18533;BME280;9396;51.510;11.934;2023-07-16T03:56:05;100045.88;;;21.94;100.00
18533;BME280;9396;51.510;11.934;2023-07-16T03:58:32;100051.66;;;21.97;100.00
18533;BME280;9396;51.510;11.934;2023-07-16T04:00:58;100053.06;;;22.00;100.00
18533;BME280;9396;51.510;11.934;2023-07-16T04:03:25;100056.13;;;22.03;100.00
18533;BME280;9396;51.510;11.934;2023-07-16T04:05:52;100068.59;;;22.04;100.00
18533;BME280;9396;51.510;11.934;2023-07-16T04:11:44;100083.44;;;22.13;100.00
18533;BME280;9396;51.510;11.934;2023-07-16T04:17:32;100061.41;;;22.10;100.00
18533;BME280;9396;51.510;11.934;2023-07-16T04:19:59;100074.03;;;22.16;100.00
18533;BME280;9396;51.510;11.934;2023-07-16T04:22:25;100068.38;;;22.17;100.00
18533;BME280;9396;51.510;11.934;2023-07-16T04:28:15;100075.19;;;22.20;100.00
18533;BME280;9396;51.510;11.934;2023-07-16T04:30:42;100079.06;;;22.24;100.00
18533;BME280;9396;51.510;11.934;2023-07-16T04:33:08;100080.75;;;22.25;100.00
18533;BME280;9396;51.510;11.934;2023-07-16T04:35:35;100087.81;;;22.26;100.00
18533;BME280;9396;51.510;11.934;2023-07-16T04:38:02;100086.75;;;22.04;100.00
18533;BME280;9396;51.510;11.934;2023-07-16T04:40:29;100098.41;;;21.93;100.00
18533;BME280;9396;51.510;11.934;2023-07-16T04:42:55;100105.34;;;22.00;100.00
18533;BME280;9396;51.510;11.934;2023-07-16T04:45:23;100106.88;;;22.08;100.00
18533;BME280;9396;51.510;11.934;2023-07-16T04:47:50;100119.03;;;22.05;100.00
18533;BME280;9396;51.510;11.934;2023-07-16T04:50:17;100108.56;;;22.09;100.00
18533;BME280;9396;51.510;11.934;2023-07-16T04:52:44;100108.78;;;21.96;100.00
18533;BME280;9396;51.510;11.934;2023-07-16T04:55:11;100112.31;;;22.08;100.00
18533;BME280;9396;51.510;11.934;2023-07-16T04:57:38;100114.06;;;22.02;100.00
18533;BME280;9396;51.510;11.934;2023-07-16T05:00:06;100116.09;;;22.07;100.00
18533;BME280;9396;51.510;11.934;2023-07-16T05:02:35;100103.72;;;21.99;100.00
18533;BME280;9396;51.510;11.934;2023-07-16T05:05:02;100109.13;;;21.99;100.00
18533;BME280;9396;51.510;11.934;2023-07-16T05:07:29;100114.88;;;21.91;100.00
18533;BME280;9396;51.510;11.934;2023-07-16T05:09:56;100113.81;;;21.81;100.00
18533;BME280;9396;51.510;11.934;2023-07-16T05:12:22;100126.44;;;21.87;100.00
18533;BME280;9396;51.510;11.934;2023-07-16T05:14:49;100139.75;;;21.88;100.00
18533;BME280;9396;51.510;11.934;2023-07-16T05:17:16;100133.38;;;21.83;100.00
18533;BME280;9396;51.510;11.934;2023-07-16T05:19:44;100143.59;;;21.81;100.00
18533;BME280;9396;51.510;11.934;2023-07-16T05:22:10;100146.81;;;21.89;100.00
18533;BME280;9396;51.510;11.934;2023-07-16T05:27:59;100161.56;;;21.75;100.00
18533;BME280;9396;51.510;11.934;2023-07-16T05:37:22;100179.47;;;22.06;100.00
18533;BME280;9396;51.510;11.934;2023-07-16T05:43:10;100177.22;;;22.38;96.16
18533;BME280;9396;51.510;11.934;2023-07-16T05:52:21;100167.72;;;22.58;91.62
18533;BME280;9396;51.510;11.934;2023-07-16T05:58:10;100156.63;;;22.71;90.14
18533;BME280;9396;51.510;11.934;2023-07-16T06:03:58;100172.88;;;23.34;89.53
18533;BME280;9396;51.510;11.934;2023-07-16T06:09:48;100177.31;;;24.13;84.38
18533;BME280;9396;51.510;11.934;2023-07-16T06:12:14;100169.38;;;24.28;83.30
18533;BME280;9396;51.510;11.934;2023-07-16T06:14:41;100182.81;;;24.51;83.76
18533;BME280;9396;51.510;11.934;2023-07-16T06:20:29;100197.13;;;25.01;80.82
18533;BME280;9396;51.510;11.934;2023-07-16T06:22:56;100197.91;;;25.18;79.83
18533;BME280;9396;51.510;11.934;2023-07-16T06:31:59;100199.75;;;25.83;77.04
18533;BME280;9396;51.510;11.934;2023-07-16T06:37:48;100204.84;;;26.32;75.16
18533;BME280;9396;51.510;11.934;2023-07-16T06:46:59;100212.88;;;27.37;71.16
18533;BME280;9396;51.510;11.934;2023-07-16T06:52:51;100184.00;;;27.92;69.97
18533;BME280;9396;51.510;11.934;2023-07-16T06:55:18;100197.44;;;28.38;67.19
18533;BME280;9396;51.510;11.934;2023-07-16T06:57:45;100186.72;;;28.57;68.22
18533;BME280;9396;51.510;11.934;2023-07-16T07:03:34;100188.63;;;28.46;66.42
18533;BME280;9396;51.510;11.934;2023-07-16T07:06:02;100194.94;;;27.97;67.92
18533;BME280;9396;51.510;11.934;2023-07-16T07:08:29;100198.25;;;28.19;67.93
18533;BME280;9396;51.510;11.934;2023-07-16T07:10:55;100185.09;;;28.51;67.89
18533;BME280;9396;51.510;11.934;2023-07-16T07:20:22;100206.09;;;28.96;65.05
18533;BME280;9396;51.510;11.934;2023-07-16T07:22:49;100218.84;;;29.35;63.93
18533;BME280;9396;51.510;11.934;2023-07-16T07:25:16;100201.97;;;29.13;63.27
18533;BME280;9396;51.510;11.934;2023-07-16T07:27:43;100222.22;;;29.07;64.14
18533;BME280;9396;51.510;11.934;2023-07-16T07:30:10;100210.47;;;29.66;62.69
18533;BME280;9396;51.510;11.934;2023-07-16T07:32:37;100217.84;;;29.75;62.52
18533;BME280;9396;51.510;11.934;2023-07-16T07:35:05;100215.81;;;30.24;61.41
18533;BME280;9396;51.510;11.934;2023-07-16T07:41:01;100217.03;;;30.76;60.53
18533;BME280;9396;51.510;11.934;2023-07-16T07:43:28;100220.69;;;30.95;60.19
18533;BME280;9396;51.510;11.934;2023-07-16T07:49:16;100219.53;;;30.43;60.91
18533;BME280;9396;51.510;11.934;2023-07-16T07:51:43;100234.72;;;30.65;59.37
18533;BME280;9396;51.510;11.934;2023-07-16T07:54:10;100229.00;;;30.90;59.22
18533;BME280;9396;51.510;11.934;2023-07-16T07:59:59;100240.75;;;29.94;61.75
18533;BME280;9396;51.510;11.934;2023-07-16T08:13:00;100256.84;;;30.11;62.56
18533;BME280;9396;51.510;11.934;2023-07-16T08:15:28;100249.81;;;29.95;58.15
18533;BME280;9396;51.510;11.934;2023-07-16T08:17:55;100256.53;;;30.12;60.62
18533;BME280;9396;51.510;11.934;2023-07-16T08:20:24;100251.00;;;30.22;60.30
18533;BME280;9396;51.510;11.934;2023-07-16T08:22:51;100254.84;;;30.55;61.99
18533;BME280;9396;51.510;11.934;2023-07-16T08:25:18;100261.41;;;30.59;57.60
18533;BME280;9396;51.510;11.934;2023-07-16T08:27:44;100249.31;;;30.60;59.25
18533;BME280;9396;51.510;11.934;2023-07-16T08:30:11;100254.09;;;30.11;58.53
18533;BME280;9396;51.510;11.934;2023-07-16T08:32:39;100265.59;;;30.13;59.60
18533;BME280;9396;51.510;11.934;2023-07-16T08:35:06;100266.72;;;30.07;60.34
18533;BME280;9396;51.510;11.934;2023-07-16T08:44:39;100285.44;;;29.46;61.55
18533;BME280;9396;51.510;11.934;2023-07-16T08:47:06;100295.09;;;29.33;62.43
18533;BME280;9396;51.510;11.934;2023-07-16T08:49:34;100300.06;;;29.06;62.40
18533;BME280;9396;51.510;11.934;2023-07-16T08:52:02;100307.22;;;28.72;61.03
18533;BME280;9396;51.510;11.934;2023-07-16T08:54:29;100309.94;;;28.32;64.12
18533;BME280;9396;51.510;11.934;2023-07-16T08:56:55;100294.81;;;28.04;58.60
18533;BME280;9396;51.510;11.934;2023-07-16T08:59:23;100308.78;;;28.03;58.70
18533;BME280;9396;51.510;11.934;2023-07-16T09:01:52;100308.81;;;28.43;61.84
18533;BME280;9396;51.510;11.934;2023-07-16T09:07:42;100294.63;;;28.56;59.10
18533;BME280;9396;51.510;11.934;2023-07-16T09:10:11;100304.44;;;28.97;60.40
18533;BME280;9396;51.510;11.934;2023-07-16T09:12:42;100297.84;;;29.23;58.20
18533;BME280;9396;51.510;11.934;2023-07-16T09:15:09;100301.72;;;29.17;59.04
18533;BME280;9396;51.510;11.934;2023-07-16T09:17:36;100297.28;;;29.31;58.81
18533;BME280;9396;51.510;11.934;2023-07-16T09:20:04;100297.56;;;29.20;58.53
18533;BME280;9396;51.510;11.934;2023-07-16T09:22:32;100295.59;;;29.35;61.27
18533;BME280;9396;51.510;11.934;2023-07-16T09:32:04;100301.84;;;29.56;56.78
18533;BME280;9396;51.510;11.934;2023-07-16T09:34:31;100310.41;;;29.34;57.51
18533;BME280;9396;51.510;11.934;2023-07-16T09:36:59;100299.19;;;29.31;60.04
18533;BME280;9396;51.510;11.934;2023-07-16T09:39:27;100301.63;;;29.47;60.33
18533;BME280;9396;51.510;11.934;2023-07-16T09:41:54;100304.41;;;29.27;57.09
18533;BME280;9396;51.510;11.934;2023-07-16T09:44:22;100306.31;;;29.27;60.37
18533;BME280;9396;51.510;11.934;2023-07-16T09:46:49;100304.19;;;29.14;55.10
18533;BME280;9396;51.510;11.934;2023-07-16T09:49:17;100315.41;;;29.17;54.99
18533;BME280;9396;51.510;11.934;2023-07-16T09:51:45;100316.78;;;29.05;53.96
18533;BME280;9396;51.510;11.934;2023-07-16T09:54:13;100322.25;;;28.95;57.85
18533;BME280;9396;51.510;11.934;2023-07-16T09:56:45;100325.00;;;28.90;59.09
18533;BME280;9396;51.510;11.934;2023-07-16T09:59:14;100301.75;;;28.87;58.96
18533;BME280;9396;51.510;11.934;2023-07-16T10:01:42;100308.84;;;28.93;56.85
18533;BME280;9396;51.510;11.934;2023-07-16T10:04:12;100305.56;;;28.81;58.68
18533;BME280;9396;51.510;11.934;2023-07-16T10:06:54;100318.16;;;28.57;58.62
18533;BME280;9396;51.510;11.934;2023-07-16T10:09:38;100318.13;;;28.32;58.01
18533;BME280;9396;51.510;11.934;2023-07-16T10:12:23;100331.44;;;27.98;57.79
18533;BME280;9396;51.510;11.934;2023-07-16T10:14:51;100316.69;;;27.99;57.88
18533;BME280;9396;51.510;11.934;2023-07-16T10:17:19;100324.81;;;27.84;61.79
18533;BME280;9396;51.510;11.934;2023-07-16T10:19:48;100314.59;;;27.55;60.13
18533;BME280;9396;51.510;11.934;2023-07-16T10:22:17;100314.59;;;27.55;59.20
18533;BME280;9396;51.510;11.934;2023-07-16T10:24:51;100314.28;;;27.46;59.43
18533;BME280;9396;51.510;11.934;2023-07-16T10:27:26;100321.13;;;27.48;54.49
18533;BME280;9396;51.510;11.934;2023-07-16T10:29:53;100310.25;;;27.64;56.68
18533;BME280;9396;51.510;11.934;2023-07-16T10:32:21;100295.47;;;27.60;56.04
18533;BME280;9396;51.510;11.934;2023-07-16T10:34:57;100320.72;;;27.77;56.58
18533;BME280;9396;51.510;11.934;2023-07-16T10:37:25;100316.31;;;27.76;54.63
18533;BME280;9396;51.510;11.934;2023-07-16T10:39:53;100302.63;;;27.76;55.61
18533;BME280;9396;51.510;11.934;2023-07-16T10:42:21;100315.53;;;27.90;58.06
18533;BME280;9396;51.510;11.934;2023-07-16T10:44:49;100332.78;;;27.91;57.02
18533;BME280;9396;51.510;11.934;2023-07-16T10:47:22;100316.88;;;27.88;57.47
18533;BME280;9396;51.510;11.934;2023-07-16T10:49:50;100317.44;;;27.90;57.68
18533;BME280;9396;51.510;11.934;2023-07-16T10:52:17;100315.75;;;27.74;55.13
18533;BME280;9396;51.510;11.934;2023-07-16T10:54:46;100319.59;;;27.73;57.46
18533;BME280;9396;51.510;11.934;2023-07-16T10:57:13;100308.66;;;27.73;59.40
18533;BME280;9396;51.510;11.934;2023-07-16T10:59:41;100329.97;;;27.66;58.41
18533;BME280;9396;51.510;11.934;2023-07-16T11:02:12;100325.91;;;27.73;56.68
18533;BME280;9396;51.510;11.934;2023-07-16T11:11:30;100317.06;;;27.61;57.53
18533;BME280;9396;51.510;11.934;2023-07-16T11:17:19;100315.41;;;27.50;55.42
18533;BME280;9396;51.510;11.934;2023-07-16T11:19:48;100318.16;;;27.55;55.66
18533;BME280;9396;51.510;11.934;2023-07-16T11:22:16;100308.09;;;27.66;55.75
18533;BME280;9396;51.510;11.934;2023-07-16T11:24:45;100298.25;;;27.70;54.20
18533;BME280;9396;51.510;11.934;2023-07-16T11:27:16;100304.25;;;27.72;54.63
18533;BME280;9396;51.510;11.934;2023-07-16T11:29:47;100290.00;;;27.65;57.82
18533;BME280;9396;51.510;11.934;2023-07-16T11:32:25;100298.50;;;27.63;55.27
18533;BME280;9396;51.510;11.934;2023-07-16T11:34:53;100298.75;;;27.62;56.83
18533;BME280;9396;51.510;11.934;2023-07-16T11:37:20;100301.22;;;27.58;57.82
18533;BME280;9396;51.510;11.934;2023-07-16T11:43:35;100295.16;;;27.51;58.31
18533;BME280;9396;51.510;11.934;2023-07-16T11:46:02;100298.75;;;27.52;56.71
18533;BME280;9396;51.510;11.934;2023-07-16T11:48:29;100294.91;;;27.58;56.94
18533;BME280;9396;51.510;11.934;2023-07-16T11:50:56;100290.81;;;27.50;57.00
18533;BME280;9396;51.510;11.934;2023-07-16T11:53:22;100305.53;;;27.44;57.10
18533;BME280;9396;51.510;11.934;2023-07-16T11:55:49;100306.56;;;27.38;58.17
18533;BME280;9396;51.510;11.934;2023-07-16T11:58:16;100303.25;;;27.31;59.85
18533;BME280;9396;51.510;11.934;2023-07-16T12:00:44;100306.69;;;27.11;59.99
18533;BME280;9396;51.510;11.934;2023-07-16T12:03:11;100306.69;;;27.11;58.23
18533;BME280;9396;51.510;11.934;2023-07-16T12:05:37;100298.56;;;27.21;58.61
18533;BME280;9396;51.510;11.934;2023-07-16T12:11:26;100293.72;;;27.33;56.32
18533;BME280;9396;51.510;11.934;2023-07-16T12:13:52;100296.72;;;27.32;54.28
18533;BME280;9396;51.510;11.934;2023-07-16T12:16:21;100296.47;;;27.38;57.76
18533;BME280;9396;51.510;11.934;2023-07-16T12:18:47;100293.47;;;27.35;58.27
18533;BME280;9396;51.510;11.934;2023-07-16T12:21:14;100305.81;;;27.42;61.03
18533;BME280;9396;51.510;11.934;2023-07-16T12:23:41;100306.28;;;27.34;59.86
18533;BME280;9396;51.510;11.934;2023-07-16T12:26:07;100301.94;;;27.38;59.22
18533;BME280;9396;51.510;11.934;2023-07-16T12:31:57;100288.13;;;27.65;52.46
18533;BME280;9396;51.510;11.934;2023-07-16T12:34:25;100307.53;;;27.69;55.13
18533;BME280;9396;51.510;11.934;2023-07-16T12:36:52;100299.31;;;27.64;57.60
18533;BME280;9396;51.510;11.934;2023-07-16T12:39:19;100308.59;;;27.58;56.68
18533;BME280;9396;51.510;11.934;2023-07-16T12:41:46;100297.41;;;27.59;55.90
18533;BME280;9396;51.510;11.934;2023-07-16T12:47:35;100297.16;;;27.66;55.55
18533;BME280;9396;51.510;11.934;2023-07-16T12:53:25;100302.56;;;27.56;52.00
18533;BME280;9396;51.510;11.934;2023-07-16T12:55:52;100286.16;;;27.56;52.32
18533;BME280;9396;51.510;11.934;2023-07-16T12:58:19;100297.69;;;27.63;56.41
18533;BME280;9396;51.510;11.934;2023-07-16T13:00:46;100309.72;;;27.67;58.34
18533;BME280;9396;51.510;11.934;2023-07-16T13:13:19;100295.28;;;27.81;61.91
18533;BME280;9396;51.510;11.934;2023-07-16T13:15:46;100289.53;;;27.78;55.40
18533;BME280;9396;51.510;11.934;2023-07-16T13:18:13;100302.13;;;27.79;54.48
18533;BME280;9396;51.510;11.934;2023-07-16T13:20:39;100305.38;;;27.76;58.17
18533;BME280;9396;51.510;11.934;2023-07-16T13:23:06;100298.25;;;27.70;57.86
18533;BME280;9396;51.510;11.934;2023-07-16T13:25:33;100302.91;;;27.69;57.36
18533;BME280;9396;51.510;11.934;2023-07-16T13:28:01;100309.72;;;27.72;55.27
18533;BME280;9396;51.510;11.934;2023-07-16T13:30:29;100304.03;;;27.73;53.74
18533;BME280;9396;51.510;11.934;2023-07-16T13:32:56;100311.41;;;27.78;54.67
18533;BME280;9396;51.510;11.934;2023-07-16T13:38:44;100312.22;;;27.73;53.84
18533;BME280;9396;51.510;11.934;2023-07-16T13:41:11;100315.47;;;27.75;51.09
18533;BME280;9396;51.510;11.934;2023-07-16T13:43:37;100322.03;;;27.64;55.67
18533;BME280;9396;51.510;11.934;2023-07-16T13:46:06;100324.22;;;27.67;53.64
18533;BME280;9396;51.510;11.934;2023-07-16T13:48:32;100322.03;;;27.69;52.50
18533;BME280;9396;51.510;11.934;2023-07-16T13:50:59;100303.69;;;27.60;53.29
18533;BME280;9396;51.510;11.934;2023-07-16T13:53:26;100319.03;;;27.71;56.78
18533;BME280;9396;51.510;11.934;2023-07-16T13:55:52;100323.16;;;27.73;51.97
18533;BME280;9396;51.510;11.934;2023-07-16T13:58:19;100314.13;;;27.78;52.39
18533;BME280;9396;51.510;11.934;2023-07-16T14:00:46;100316.88;;;27.83;56.17
18533;BME280;9396;51.510;11.934;2023-07-16T14:03:14;100320.16;;;27.80;56.85
18533;BME280;9396;51.510;11.934;2023-07-16T14:05:41;100312.75;;;27.75;52.77
18533;BME280;9396;51.510;11.934;2023-07-16T14:08:08;100311.69;;;27.81;51.91
18533;BME280;9396;51.510;11.934;2023-07-16T14:14:24;100320.19;;;27.85;53.19
18533;BME280;9396;51.510;11.934;2023-07-16T14:16:51;100309.19;;;27.70;55.72
18533;BME280;9396;51.510;11.934;2023-07-16T14:19:19;100311.94;;;27.70;53.33
18533;BME280;9396;51.510;11.934;2023-07-16T14:21:46;100302.34;;;27.72;55.22
18533;BME280;9396;51.510;11.934;2023-07-16T14:24:13;100304.88;;;27.84;54.07
18533;BME280;9396;51.510;11.934;2023-07-16T14:26:39;100316.88;;;27.88;52.60
18533;BME280;9396;51.510;11.934;2023-07-16T14:32:28;100302.09;;;27.74;54.68
18533;BME280;9396;51.510;11.934;2023-07-16T14:34:58;100301.56;;;27.82;53.53
18533;BME280;9396;51.510;11.934;2023-07-16T14:37:25;100308.69;;;27.83;54.21
18533;BME280;9396;51.510;11.934;2023-07-16T14:39:52;100320.72;;;27.77;55.00
18533;BME280;9396;51.510;11.934;2023-07-16T14:42:18;100314.69;;;27.80;51.33
18533;BME280;9396;51.510;11.934;2023-07-16T14:44:45;100302.94;;;27.84;52.28
18533;BME280;9396;51.510;11.934;2023-07-16T14:47:12;100306.19;;;27.71;54.66
18533;BME280;9396;51.510;11.934;2023-07-16T14:49:39;100311.38;;;27.68;53.60
18533;BME280;9396;51.510;11.934;2023-07-16T14:52:07;100312.97;;;27.59;51.92
18533;BME280;9396;51.510;11.934;2023-07-16T14:57:55;100322.53;;;27.61;55.48
18533;BME280;9396;51.510;11.934;2023-07-16T15:00:23;100321.19;;;27.64;52.74
18533;BME280;9396;51.510;11.934;2023-07-16T15:02:51;100314.63;;;27.65;55.40
18533;BME280;9396;51.510;11.934;2023-07-16T15:05:17;100317.41;;;27.70;54.72
18533;BME280;9396;51.510;11.934;2023-07-16T15:07:45;100303.72;;;27.70;52.91
18533;BME280;9396;51.510;11.934;2023-07-16T15:10:13;100306.97;;;27.62;52.23
18533;BME280;9396;51.510;11.934;2023-07-16T15:12:40;100305.28;;;27.51;53.09
18533;BME280;9396;51.510;11.934;2023-07-16T15:18:28;100310.19;;;27.48;53.31
18533;BME280;9396;51.510;11.934;2023-07-16T15:20:55;100314.31;;;27.56;52.58
18533;BME280;9396;51.510;11.934;2023-07-16T15:23:24;100312.13;;;27.48;54.18
18533;BME280;9396;51.510;11.934;2023-07-16T15:25:51;100304.41;;;27.40;55.30
18533;BME280;9396;51.510;11.934;2023-07-16T15:28:18;100308.25;;;27.44;55.31
18533;BME280;9396;51.510;11.934;2023-07-16T15:30:45;100310.72;;;27.45;54.24
18533;BME280;9396;51.510;11.934;2023-07-16T15:37:10;100314.88;;;27.53;54.85
18533;BME280;9396;51.510;11.934;2023-07-16T15:39:39;100312.41;;;27.52;53.96
18533;BME280;9396;51.510;11.934;2023-07-16T15:42:06;100314.31;;;27.56;52.39
18533;BME280;9396;51.510;11.934;2023-07-16T15:44:33;100316.00;;;27.62;54.34
18533;BME280;9396;51.510;11.934;2023-07-16T15:46:59;100312.16;;;27.63;51.29
18533;BME280;9396;51.510;11.934;2023-07-16T15:49:27;100318.75;;;27.67;54.07
18533;BME280;9396;51.510;11.934;2023-07-16T15:51:54;100319.31;;;27.69;52.46
18533;BME280;9396;51.510;11.934;2023-07-16T15:57:44;100314.88;;;27.53;53.44
18533;BME280;9396;51.510;11.934;2023-07-16T16:09:58;100318.06;;;27.40;53.68
18533;BME280;9396;51.510;11.934;2023-07-16T16:12:25;100315.84;;;27.32;54.11
18533;BME280;9396;51.510;11.934;2023-07-16T16:18:27;100310.56;;;27.25;55.76
18533;BME280;9396;51.510;11.934;2023-07-16T16:20:54;100318.75;;;27.20;53.98
18533;BME280;9396;51.510;11.934;2023-07-16T16:26:42;100321.44;;;27.10;56.97
18533;BME280;9396;51.510;11.934;2023-07-16T16:29:09;100313.72;;;27.02;57.78
18533;BME280;9396;51.510;11.934;2023-07-16T16:31:35;100311.03;;;27.07;54.58
18533;BME280;9396;51.510;11.934;2023-07-16T16:34:04;100324.06;;;26.95;55.33
18533;BME280;9396;51.510;11.934;2023-07-16T16:43:35;100313.97;;;26.96;52.38
18533;BME280;9396;51.510;11.934;2023-07-16T16:46:01;100321.13;;;27.02;54.46
18533;BME280;9396;51.510;11.934;2023-07-16T16:48:29;100322.97;;;26.96;53.33
18533;BME280;9396;51.510;11.934;2023-07-16T16:50:57;100324.03;;;26.90;51.23